createdAt,value
2023-02-17T00:02:07.329Z,24.97
2023-02-17T00:05:12.132Z,27.27
2023-02-17T00:08:15.375Z,26.33
2023-02-17T00:11:19.233Z,25.70
2023-02-17T00:14:24.735Z,26.23
2023-02-17T00:17:27.922Z,25.43
2023-02-17T00:20:32.511Z,28.90
2023-02-17T00:23:35.724Z,27.40
2023-02-17T00:26:38.975Z,28.13
2023-02-17T00:29:42.065Z,27.63
2023-02-17T00:32:47.433Z,29.47
2023-02-17T00:35:52.105Z,28.33
2023-02-17T00:38:56.748Z,27.70
2023-02-17T00:41:59.773Z,28.50
2023-02-17T00:45:02.900Z,27.67
2023-02-17T00:48:06.044Z,27.87
2023-02-17T00:51:10.918Z,28.90
2023-02-17T00:54:14.545Z,28.40
2023-02-17T00:57:17.745Z,27.40
2023-02-17T01:00:21.510Z,28.67
2023-02-17T01:03:24.848Z,29.60
2023-02-17T01:06:32.124Z,26.73
2023-02-17T01:09:35.200Z,28.63
2023-02-17T01:12:38.690Z,29.83
2023-02-17T01:15:44.423Z,29.77
2023-02-17T01:18:47.566Z,29.00
2023-02-17T01:21:52.457Z,27.70
2023-02-17T01:24:55.732Z,28.70
2023-02-17T01:27:59.178Z,28.87
2023-02-17T01:31:07.154Z,28.60
2023-02-17T01:34:11.910Z,28.60
2023-02-17T01:37:16.305Z,28.10
2023-02-17T01:40:19.945Z,28.73
2023-02-17T01:43:23.270Z,28.17
2023-02-17T01:46:26.330Z,27.57
2023-02-17T01:49:34.156Z,27.67
2023-02-17T01:52:40.776Z,27.37
2023-02-17T01:55:45.057Z,28.60
2023-02-17T01:58:53.059Z,26.17
2023-02-17T02:01:59.181Z,29.23
2023-02-17T02:05:05.471Z,28.87
2023-02-17T02:08:10.957Z,29.27
2023-02-17T02:11:14.481Z,30.07
2023-02-17T02:14:19.450Z,28.70
2023-02-17T02:17:35.533Z,29.57
2023-02-17T02:21:00.775Z,30.27
2023-02-17T02:24:24.474Z,28.87
2023-02-17T02:27:49.496Z,30.20
2023-02-17T02:31:04.804Z,31.67
2023-02-17T02:34:15.031Z,31.60
2023-02-17T02:37:22.740Z,32.63
2023-02-17T02:40:30.032Z,33.87
2023-02-17T02:43:33.648Z,31.50
2023-02-17T02:46:37.003Z,31.60
2023-02-17T02:49:44.812Z,30.37
2023-02-17T02:53:05.909Z,31.47
2023-02-17T02:56:15.874Z,32.10
2023-02-17T02:59:28.475Z,31.80
2023-02-17T03:02:38.181Z,33.23
2023-02-17T03:05:52.066Z,31.60
2023-02-17T03:09:00.311Z,32.83
2023-02-17T03:12:03.571Z,32.90
2023-02-17T03:15:15.626Z,34.60
2023-02-17T03:18:19.141Z,34.53
2023-02-17T03:21:24.597Z,33.43
2023-02-17T03:24:27.676Z,34.60
2023-02-17T03:27:31.749Z,32.37
2023-02-17T03:30:34.997Z,32.77
2023-02-17T03:33:38.074Z,33.40
2023-02-17T03:36:42.690Z,33.57
2023-02-17T03:39:45.788Z,33.60
2023-02-17T03:42:49.386Z,32.70
2023-02-17T03:45:52.484Z,34.90
2023-02-17T03:48:55.968Z,34.60
2023-02-17T03:52:00.527Z,33.83
2023-02-17T03:55:03.627Z,34.37
2023-02-17T03:58:06.878Z,33.50
2023-02-17T04:01:11.384Z,33.20
2023-02-17T04:04:14.545Z,35.73
2023-02-17T04:07:19.645Z,35.17
2023-02-17T04:10:22.755Z,36.10
2023-02-17T04:13:26.286Z,36.17
2023-02-17T04:16:29.524Z,33.13
2023-02-17T04:19:32.684Z,34.80
2023-02-17T04:22:37.280Z,34.50
2023-02-17T04:25:40.403Z,32.97
2023-02-17T04:28:44.512Z,37.17
2023-02-17T04:31:50.897Z,34.73
2023-02-17T04:34:54.095Z,34.70
2023-02-17T04:37:59.661Z,32.70
2023-02-17T04:41:02.976Z,34.17
2023-02-17T04:44:06.251Z,34.23
2023-02-17T04:47:09.365Z,35.47
2023-02-17T04:50:13.430Z,32.70
2023-02-17T04:53:18.557Z,33.13
2023-02-17T04:56:21.689Z,31.63
2023-02-17T04:59:25.739Z,32.93
2023-02-17T05:02:30.431Z,32.00
2023-02-17T05:05:34.700Z,31.80
2023-02-17T05:08:39.253Z,34.57
2023-02-17T05:11:42.381Z,34.13
2023-02-17T05:14:45.413Z,33.87
2023-02-17T05:17:48.654Z,34.20
2023-02-17T05:20:54.837Z,34.00
2023-02-17T05:23:59.462Z,34.93
2023-02-17T05:27:02.649Z,34.60
2023-02-17T05:30:07.169Z,35.27
2023-02-17T05:33:10.806Z,34.83
2023-02-17T05:36:14.278Z,33.67
2023-02-17T05:39:19.193Z,34.00
2023-02-17T05:42:22.242Z,34.87
2023-02-17T05:45:27.329Z,33.03
2023-02-17T05:48:30.378Z,34.13
2023-02-17T05:51:33.445Z,32.53
2023-02-17T05:54:37.760Z,31.73
2023-02-17T05:57:40.784Z,33.80
2023-02-17T06:00:43.901Z,32.13
2023-02-17T06:03:47.067Z,33.37
2023-02-17T06:06:50.025Z,31.73
2023-02-17T06:09:54.694Z,32.00
2023-02-17T06:12:57.645Z,32.30
2023-02-17T06:16:00.910Z,32.00
2023-02-17T06:19:05.092Z,31.10
2023-02-17T06:22:08.601Z,31.80
2023-02-17T06:25:12.956Z,31.77
2023-02-17T06:28:16.056Z,32.47
2023-02-17T06:31:19.151Z,31.63
2023-02-17T06:34:22.287Z,30.57
2023-02-17T06:37:25.261Z,30.13
2023-02-17T06:40:29.728Z,31.20
2023-02-17T06:43:32.902Z,29.90
2023-02-17T06:46:36.099Z,30.73
2023-02-17T06:49:40.761Z,30.10
2023-02-17T06:52:44.256Z,29.97
2023-02-17T06:55:49.062Z,28.90
2023-02-17T06:58:53.085Z,27.37
2023-02-17T07:01:56.206Z,29.57
2023-02-17T07:04:59.599Z,29.13
2023-02-17T07:08:02.708Z,27.43
2023-02-17T07:11:08.439Z,26.97
2023-02-17T07:14:11.506Z,28.30
2023-02-17T07:17:14.506Z,26.23
2023-02-17T07:20:17.699Z,25.63
2023-02-17T07:23:20.963Z,26.10
2023-02-17T07:26:25.488Z,25.77
2023-02-17T07:29:28.627Z,24.50
2023-02-17T07:32:31.868Z,24.77
2023-02-17T07:35:35.891Z,24.40
2023-02-17T07:38:39.070Z,25.07
2023-02-17T07:41:43.706Z,22.67
2023-02-17T07:44:46.732Z,22.43
2023-02-17T07:47:49.737Z,23.27
2023-02-17T07:50:52.944Z,23.23
2023-02-17T07:53:56.289Z,23.43
2023-02-17T07:57:00.903Z,22.83
2023-02-17T08:00:05.436Z,22.23
2023-02-17T08:03:10.700Z,22.57
2023-02-17T08:06:15.260Z,22.07
2023-02-17T08:09:35.943Z,23.17
2023-02-17T08:12:58.048Z,23.57
2023-02-17T08:16:01.057Z,21.97
2023-02-17T08:19:06.071Z,20.73
2023-02-17T08:22:10.189Z,19.30
2023-02-17T08:25:13.245Z,21.03
2023-02-17T08:28:17.940Z,18.87
2023-02-17T08:31:23.660Z,19.70
2023-02-17T08:34:27.942Z,21.13
2023-02-17T08:37:32.131Z,20.20
2023-02-17T08:40:35.196Z,19.30
2023-02-17T08:43:39.641Z,20.90
2023-02-17T08:46:43.651Z,20.87
2023-02-17T08:49:46.685Z,19.47
2023-02-17T08:52:49.721Z,18.83
2023-02-17T08:55:52.753Z,20.27
2023-02-17T08:58:57.866Z,18.80
2023-02-17T09:02:01.428Z,20.13
2023-02-17T09:05:05.684Z,19.90
2023-02-17T09:08:10.968Z,20.40
2023-02-17T09:11:17.153Z,20.87
2023-02-17T09:14:23.923Z,19.90
2023-02-17T09:17:27.368Z,20.23
2023-02-17T09:20:30.496Z,21.17
2023-02-17T09:23:33.500Z,20.13
2023-02-17T09:26:36.919Z,20.47
2023-02-17T09:29:41.706Z,20.03
2023-02-17T09:32:44.867Z,20.70
2023-02-17T09:35:50.153Z,20.17
2023-02-17T09:38:53.608Z,20.60
2023-02-17T09:41:57.857Z,21.43
2023-02-17T09:45:06.685Z,20.13
2023-02-17T09:48:13.668Z,22.07
2023-02-17T09:51:23.923Z,20.80
2023-02-17T09:54:33.369Z,20.60
2023-02-17T09:57:41.290Z,20.70
2023-02-17T10:00:47.919Z,22.13
2023-02-17T10:03:55.572Z,20.23
2023-02-17T10:07:05.248Z,22.17
2023-02-17T10:10:12.727Z,22.57
2023-02-17T10:13:19.029Z,23.27
2023-02-17T10:16:30.913Z,22.03
2023-02-17T10:19:37.354Z,20.37
2023-02-17T10:22:43.701Z,21.23
2023-02-17T10:26:02.180Z,20.77
2023-02-17T10:29:08.085Z,20.23
2023-02-17T10:32:23.614Z,22.13
2023-02-17T10:35:35.711Z,22.60
2023-02-17T10:38:50.365Z,22.07
2023-02-17T10:41:56.057Z,21.90
2023-02-17T10:45:04.139Z,23.13
2023-02-17T10:48:15.578Z,23.53
2023-02-17T10:51:21.329Z,21.70
2023-02-17T10:54:31.204Z,21.70
2023-02-17T10:57:39.125Z,22.33
2023-02-17T11:00:43.736Z,22.67
2023-02-17T11:03:49.055Z,21.27
2023-02-17T11:06:55.000Z,22.20
2023-02-17T11:10:01.732Z,22.17
2023-02-17T11:13:20.387Z,21.50
2023-02-17T11:16:28.282Z,22.53
2023-02-17T11:19:34.673Z,21.20
2023-02-17T11:22:41.035Z,19.37
2023-02-17T11:25:55.466Z,20.87
2023-02-17T11:29:09.313Z,22.17
2023-02-17T11:32:13.837Z,21.63
2023-02-17T11:35:27.579Z,20.37
2023-02-17T11:38:42.176Z,19.93
2023-02-17T11:41:45.224Z,20.17
2023-02-17T11:44:48.328Z,19.77
2023-02-17T11:48:05.060Z,19.17
2023-02-17T11:51:15.944Z,17.90
2023-02-17T11:54:25.346Z,17.77
2023-02-17T11:57:39.515Z,17.90
2023-02-17T12:00:51.428Z,16.57
2023-02-17T12:04:24.205Z,16.43
2023-02-17T12:07:45.464Z,15.77
2023-02-17T12:11:02.789Z,16.00
2023-02-17T12:14:23.440Z,16.30
2023-02-17T12:17:38.289Z,15.63
2023-02-17T12:20:51.890Z,14.43
2023-02-17T12:24:24.190Z,14.30
2023-02-17T12:27:44.184Z,13.87
2023-02-17T12:30:58.108Z,13.53
2023-02-17T12:34:07.800Z,12.93
2023-02-17T12:37:19.593Z,12.60
2023-02-17T12:40:35.074Z,13.33
2023-02-17T12:43:42.121Z,12.63
2023-02-17T12:46:48.386Z,11.23
2023-02-17T12:49:56.722Z,11.67
2023-02-17T12:53:04.151Z,11.77
2023-02-17T12:56:28.829Z,11.67
2023-02-17T12:59:35.102Z,11.47
2023-02-17T13:02:38.542Z,10.27
2023-02-17T13:05:49.566Z,10.57
2023-02-17T13:08:56.830Z,10.33
2023-02-17T13:12:16.989Z,10.03
2023-02-17T13:15:30.242Z,10.10
2023-02-17T13:18:35.682Z,10.23
2023-02-17T13:21:49.561Z,9.70
2023-02-17T13:24:54.546Z,9.50
2023-02-17T13:27:59.463Z,9.43
2023-02-17T13:31:13.055Z,8.83
2023-02-17T13:34:27.754Z,8.30
2023-02-17T13:37:41.235Z,8.40
2023-02-17T13:40:44.891Z,8.50
2023-02-17T13:43:49.732Z,8.00
2023-02-17T13:46:53.476Z,7.53
2023-02-17T13:49:58.533Z,8.13
2023-02-17T13:53:02.425Z,7.67
2023-02-17T13:56:07.804Z,7.47
2023-02-17T13:59:18.191Z,7.27
2023-02-17T14:02:35.501Z,6.97
2023-02-17T14:05:44.306Z,7.10
2023-02-17T14:08:48.331Z,6.60
2023-02-17T14:11:52.230Z,7.53
2023-02-17T14:14:56.680Z,7.37
2023-02-17T14:17:59.660Z,7.10
2023-02-17T14:21:06.245Z,7.03
2023-02-17T14:24:24.329Z,7.57
2023-02-17T14:27:27.434Z,7.73
2023-02-17T14:30:35.497Z,7.97
2023-02-17T14:33:38.773Z,7.50
2023-02-17T14:36:41.927Z,7.57
2023-02-17T14:39:45.944Z,8.07
2023-02-17T14:42:49.411Z,8.40
2023-02-17T14:45:54.019Z,7.30
2023-02-17T14:48:57.054Z,8.50
2023-02-17T14:52:00.179Z,8.77
2023-02-17T14:55:03.197Z,8.73
2023-02-17T14:58:06.407Z,9.40
2023-02-17T15:01:14.163Z,10.17
2023-02-17T15:04:17.170Z,10.13
2023-02-17T15:07:21.077Z,10.30
2023-02-17T15:10:28.685Z,10.87
2023-02-17T15:13:32.660Z,11.13
2023-02-17T15:16:37.164Z,11.40
2023-02-17T15:19:40.207Z,11.73
2023-02-17T15:22:44.416Z,12.73
2023-02-17T15:25:48.302Z,11.80
2023-02-17T15:28:51.691Z,12.53
2023-02-17T15:31:57.781Z,12.70
2023-02-17T15:35:01.356Z,13.17
2023-02-17T15:38:04.320Z,13.50
2023-02-17T15:41:14.477Z,12.87
2023-02-17T15:44:20.357Z,13.07
2023-02-17T15:47:25.691Z,13.77
2023-02-17T15:50:28.897Z,13.50
2023-02-17T15:53:33.534Z,12.93
2023-02-17T15:56:43.741Z,14.40
2023-02-17T15:59:46.799Z,13.60
2023-02-17T16:02:51.617Z,13.23
2023-02-17T16:05:54.933Z,13.53
2023-02-17T16:08:58.920Z,13.00
2023-02-17T16:12:02.745Z,13.00
2023-02-17T16:15:07.438Z,13.70
2023-02-17T16:18:20.340Z,13.30
2023-02-17T16:21:25.859Z,13.43
2023-02-17T16:24:29.005Z,12.07
2023-02-17T16:27:32.036Z,12.50
2023-02-17T16:30:36.674Z,11.70
2023-02-17T16:33:41.420Z,11.33
2023-02-17T16:36:44.992Z,12.30
2023-02-17T16:39:49.185Z,10.63
2023-02-17T16:42:52.817Z,10.47
2023-02-17T16:45:58.271Z,9.97
2023-02-17T16:49:04.953Z,8.67
2023-02-17T16:52:17.563Z,9.10
2023-02-17T16:55:23.011Z,8.63
2023-02-17T16:58:27.264Z,8.93
2023-02-17T17:01:30.631Z,8.07
2023-02-17T17:04:35.023Z,8.40
2023-02-17T17:07:46.043Z,7.37
2023-02-17T17:10:49.341Z,7.23
2023-02-17T17:13:54.758Z,7.20
2023-02-17T17:17:02.269Z,7.23
2023-02-17T17:20:08.006Z,6.77
2023-02-17T17:23:14.948Z,6.40
2023-02-17T17:26:23.942Z,6.70
2023-02-17T17:29:27.300Z,6.80
2023-02-17T17:32:30.368Z,6.40
2023-02-17T17:35:34.833Z,6.77
2023-02-17T17:38:37.908Z,6.60
2023-02-17T17:41:41.084Z,6.20
2023-02-17T17:44:44.308Z,6.30
2023-02-17T17:47:47.484Z,6.23
2023-02-17T17:50:51.902Z,6.03
2023-02-17T17:53:55.046Z,5.97
2023-02-17T17:56:58.386Z,6.00
2023-02-17T18:00:01.647Z,5.57
2023-02-17T18:03:05.182Z,6.53
2023-02-17T18:06:23.003Z,6.17
2023-02-17T18:09:32.393Z,6.20
2023-02-17T18:12:36.552Z,6.80
2023-02-17T18:15:42.735Z,6.30
2023-02-17T18:18:46.167Z,5.57
2023-02-17T18:21:50.782Z,4.77
2023-02-17T18:24:53.977Z,4.47
2023-02-17T18:27:57.578Z,4.13
2023-02-17T18:31:01.080Z,4.40
2023-02-17T18:34:04.518Z,4.40
2023-02-17T18:37:09.127Z,4.30
2023-02-17T18:40:14.491Z,4.40
2023-02-17T18:43:17.687Z,3.80
2023-02-17T18:46:24.142Z,4.13
2023-02-17T18:49:31.646Z,4.00
2023-02-17T18:52:38.437Z,4.07
2023-02-17T18:55:41.816Z,4.03
2023-02-17T18:58:46.188Z,4.13
2023-02-17T19:01:50.409Z,3.70
2023-02-17T19:04:54.036Z,3.73
2023-02-17T19:07:58.904Z,3.97
2023-02-17T19:11:03.010Z,3.53
2023-02-17T19:14:06.114Z,3.10
2023-02-17T19:17:10.049Z,3.03
2023-02-17T19:20:13.928Z,3.10
2023-02-17T19:23:18.507Z,3.30
2023-02-17T19:26:22.177Z,3.10
2023-02-17T19:29:25.216Z,3.20
2023-02-17T19:32:28.850Z,3.07
2023-02-17T19:35:31.880Z,3.37
2023-02-17T19:38:36.776Z,3.60
2023-02-17T19:41:39.919Z,3.50
2023-02-17T19:44:42.934Z,3.07
2023-02-17T19:47:46.178Z,3.10
2023-02-17T19:50:49.294Z,3.47
2023-02-17T19:53:53.702Z,3.17
2023-02-17T19:56:56.797Z,3.53
2023-02-17T19:59:59.810Z,3.40
2023-02-17T20:03:02.856Z,3.93
2023-02-17T20:06:08.589Z,3.33
2023-02-17T20:09:16.593Z,3.73
2023-02-17T20:12:19.790Z,3.60
2023-02-17T20:15:25.364Z,3.67
2023-02-17T20:18:28.998Z,3.60
2023-02-17T20:21:33.470Z,3.50
2023-02-17T20:24:40.727Z,3.23
2023-02-17T20:27:43.854Z,3.40
2023-02-17T20:30:47.050Z,4.10
2023-02-17T20:33:50.768Z,3.97
2023-02-17T20:36:53.830Z,3.83
2023-02-17T20:39:58.179Z,3.43
2023-02-17T20:43:01.624Z,4.00
2023-02-17T20:46:07.831Z,4.43
2023-02-17T20:49:11.465Z,3.83
2023-02-17T20:52:14.580Z,4.67
2023-02-17T20:55:20.099Z,4.23
2023-02-17T20:58:23.119Z,4.03
2023-02-17T21:01:26.276Z,4.23
2023-02-17T21:04:29.340Z,4.03
2023-02-17T21:07:32.810Z,3.87
2023-02-17T21:10:39.799Z,4.97
2023-02-17T21:13:42.931Z,3.73
2023-02-17T21:16:46.490Z,4.53
2023-02-17T21:19:49.547Z,4.60
2023-02-17T21:22:52.831Z,4.27
2023-02-17T21:25:57.307Z,4.40
2023-02-17T21:29:00.506Z,4.10
2023-02-17T21:32:04.734Z,4.60
2023-02-17T21:35:10.194Z,4.13
2023-02-17T21:38:15.624Z,4.37
2023-02-17T21:41:24.092Z,4.77
2023-02-17T21:44:47.256Z,4.60
2023-02-17T21:47:50.390Z,4.70
2023-02-17T21:50:53.579Z,4.47
2023-02-17T21:53:57.861Z,4.47
2023-02-17T21:57:04.329Z,4.30
2023-02-17T22:00:09.724Z,4.63
2023-02-17T22:03:12.900Z,5.00
2023-02-17T22:06:18.466Z,4.27
2023-02-17T22:09:21.895Z,4.03
2023-02-17T22:12:28.956Z,4.40
2023-02-17T22:15:32.064Z,4.40
2023-02-17T22:18:35.227Z,4.00
2023-02-17T22:21:39.965Z,4.40
2023-02-17T22:24:43.068Z,4.70
2023-02-17T22:27:47.683Z,4.63
2023-02-17T22:30:52.883Z,4.60
2023-02-17T22:33:58.097Z,4.43
2023-02-17T22:37:01.218Z,4.33
2023-02-17T22:40:05.249Z,4.20
2023-02-17T22:43:10.259Z,4.70
2023-02-17T22:46:16.397Z,4.07
2023-02-17T22:49:19.473Z,4.30
2023-02-17T22:52:22.571Z,4.90
2023-02-17T22:55:25.639Z,4.90
2023-02-17T22:58:33.515Z,4.30
2023-02-17T23:01:38.229Z,4.43
2023-02-17T23:04:41.364Z,4.80
2023-02-17T23:07:44.402Z,4.63
2023-02-17T23:10:47.518Z,4.20
2023-02-17T23:13:52.004Z,4.60
2023-02-17T23:16:57.119Z,4.57
2023-02-17T23:20:00.236Z,4.03
2023-02-17T23:23:03.542Z,4.70
2023-02-17T23:26:07.688Z,5.10
2023-02-17T23:29:12.658Z,4.33
2023-02-17T23:32:15.808Z,4.90
2023-02-17T23:35:19.335Z,4.50
2023-02-17T23:38:22.907Z,4.60
2023-02-17T23:41:25.977Z,5.30
2023-02-17T23:44:32.887Z,4.90
2023-02-17T23:47:36.042Z,5.17
2023-02-17T23:50:39.696Z,5.17
2023-02-17T23:53:42.730Z,4.80
2023-02-17T23:56:45.854Z,4.33
2023-02-17T23:59:51.847Z,4.50
